sensor_id;sensor_type;location;lat;lon;timestamp;pressure;altitude;pressure_sealevel;temperature;humidity
47592;BME280;33317;33.356;-117.184;2024-01-11T00:01:16;99067.42;;;25.89;23.87
47592;BME280;33317;33.356;-117.184;2024-01-11T00:03:44;99062.26;;;25.88;23.89
47592;BME280;33317;33.356;-117.184;2024-01-11T00:06:13;99060.20;;;25.85;23.99
47592;BME280;33317;33.356;-117.184;2024-01-11T00:08:41;99055.67;;;25.82;24.03
47592;BME280;33317;33.356;-117.184;2024-01-11T00:11:11;99053.82;;;26.01;24.13
47592;BME280;33317;33.356;-117.184;2024-01-11T00:13:39;99057.52;;;25.73;24.23
47592;BME280;33317;33.356;-117.184;2024-01-11T00:16:08;99056.59;;;25.69;24.24
47592;BME280;33317;33.356;-117.184;2024-01-11T00:18:36;99057.57;;;25.85;24.24
47592;BME280;33317;33.356;-117.184;2024-01-11T00:21:04;99058.22;;;25.79;24.38
47592;BME280;33317;33.356;-117.184;2024-01-11T00:23:33;99057.72;;;25.71;24.43
47592;BME280;33317;33.356;-117.184;2024-01-11T00:26:01;99058.56;;;25.45;24.44
47592;BME280;33317;33.356;-117.184;2024-01-11T00:28:29;99054.30;;;25.59;24.62
47592;BME280;33317;33.356;-117.184;2024-01-11T00:30:58;99056.21;;;25.49;24.71
47592;BME280;33317;33.356;-117.184;2024-01-11T00:33:26;99063.47;;;25.42;24.80
47592;BME280;33317;33.356;-117.184;2024-01-11T00:35:54;99072.49;;;25.60;24.92
47592;BME280;33317;33.356;-117.184;2024-01-11T00:38:23;99071.89;;;25.51;25.03
47592;BME280;33317;33.356;-117.184;2024-01-11T00:40:51;99069.57;;;25.47;25.09
47592;BME280;33317;33.356;-117.184;2024-01-11T00:43:20;99070.78;;;25.08;25.19
47592;BME280;33317;33.356;-117.184;2024-01-11T00:45:52;99072.35;;;25.17;25.31
47592;BME280;33317;33.356;-117.184;2024-01-11T00:48:21;99070.78;;;24.87;25.34
47592;BME280;33317;33.356;-117.184;2024-01-11T00:50:49;99071.71;;;25.07;25.42
47592;BME280;33317;33.356;-117.184;2024-01-11T00:53:18;99075.92;;;24.74;25.48
47592;BME280;33317;33.356;-117.184;2024-01-11T00:55:59;99077.16;;;24.94;25.55
47592;BME280;33317;33.356;-117.184;2024-01-11T00:58:27;99081.89;;;24.86;25.68
47592;BME280;33317;33.356;-117.184;2024-01-11T01:00:55;99080.56;;;24.49;25.65
47592;BME280;33317;33.356;-117.184;2024-01-11T01:03:23;99082.19;;;24.49;25.77
47592;BME280;33317;33.356;-117.184;2024-01-11T01:05:52;99077.33;;;24.66;25.81
47592;BME280;33317;33.356;-117.184;2024-01-11T01:08:20;99071.00;;;24.33;25.90
47592;BME280;33317;33.356;-117.184;2024-01-11T01:10:49;99072.38;;;24.56;25.93
47592;BME280;33317;33.356;-117.184;2024-01-11T01:13:18;99072.75;;;24.49;25.96
47592;BME280;33317;33.356;-117.184;2024-01-11T01:15:48;99071.66;;;24.44;26.03
47592;BME280;33317;33.356;-117.184;2024-01-11T01:18:17;99067.31;;;24.37;26.18
47592;BME280;33317;33.356;-117.184;2024-01-11T01:20:45;99069.76;;;24.31;26.19
47592;BME280;33317;33.356;-117.184;2024-01-11T01:23:13;99072.72;;;24.27;26.22
47592;BME280;33317;33.356;-117.184;2024-01-11T01:25:42;99074.28;;;24.12;26.39
47592;BME280;33317;33.356;-117.184;2024-01-11T01:28:10;99078.38;;;24.32;26.42
47592;BME280;33317;33.356;-117.184;2024-01-11T01:30:38;99079.58;;;24.13;26.47
47592;BME280;33317;33.356;-117.184;2024-01-11T01:33:08;99079.01;;;24.41;26.44
47592;BME280;33317;33.356;-117.184;2024-01-11T01:35:41;99082.28;;;24.00;26.60
47592;BME280;33317;33.356;-117.184;2024-01-11T01:38:10;99081.53;;;24.01;26.61
47592;BME280;33317;33.356;-117.184;2024-01-11T01:40:38;99084.59;;;24.00;26.67
47592;BME280;33317;33.356;-117.184;2024-01-11T01:43:08;99088.12;;;23.93;26.76
47592;BME280;33317;33.356;-117.184;2024-01-11T01:45:36;99087.09;;;23.97;26.70
47592;BME280;33317;33.356;-117.184;2024-01-11T01:48:05;99086.03;;;24.19;26.72
47592;BME280;33317;33.356;-117.184;2024-01-11T01:50:34;99089.45;;;24.09;26.84
47592;BME280;33317;33.356;-117.184;2024-01-11T01:53:02;99085.16;;;24.15;26.80
47592;BME280;33317;33.356;-117.184;2024-01-11T01:55:31;99081.80;;;23.95;26.77
47592;BME280;33317;33.356;-117.184;2024-01-11T01:58:00;99077.75;;;24.35;26.80
47592;BME280;33317;33.356;-117.184;2024-01-11T02:00:32;99081.51;;;24.35;26.81
47592;BME280;33317;33.356;-117.184;2024-01-11T02:03:01;99085.59;;;24.05;26.89
47592;BME280;33317;33.356;-117.184;2024-01-11T02:05:29;99078.14;;;23.86;26.92
47592;BME280;33317;33.356;-117.184;2024-01-11T02:08:01;99075.05;;;24.03;26.97
47592;BME280;33317;33.356;-117.184;2024-01-11T02:10:34;99074.88;;;23.99;27.00
47592;BME280;33317;33.356;-117.184;2024-01-11T02:13:03;99081.86;;;24.11;27.10
47592;BME280;33317;33.356;-117.184;2024-01-11T02:15:32;99081.72;;;23.56;27.17
47592;BME280;33317;33.356;-117.184;2024-01-11T02:18:01;99083.11;;;23.63;27.14
47592;BME280;33317;33.356;-117.184;2024-01-11T02:20:31;99089.44;;;23.65;27.07
47592;BME280;33317;33.356;-117.184;2024-01-11T02:23:03;99088.41;;;23.68;27.26
47592;BME280;33317;33.356;-117.184;2024-01-11T02:25:32;99090.21;;;23.58;27.17
47592;BME280;33317;33.356;-117.184;2024-01-11T02:28:00;99091.01;;;23.98;27.18
47592;BME280;33317;33.356;-117.184;2024-01-11T02:30:29;99086.00;;;23.72;27.21
47592;BME280;33317;33.356;-117.184;2024-01-11T02:32:58;99081.00;;;23.58;27.35
47592;BME280;33317;33.356;-117.184;2024-01-11T02:35:27;99077.02;;;23.30;27.42
47592;BME280;33317;33.356;-117.184;2024-01-11T02:37:56;99075.85;;;23.64;27.50
47592;BME280;33317;33.356;-117.184;2024-01-11T02:40:26;99070.44;;;23.33;27.61
47592;BME280;33317;33.356;-117.184;2024-01-11T02:42:54;99070.47;;;23.51;27.63
47592;BME280;33317;33.356;-117.184;2024-01-11T02:45:23;99073.96;;;23.23;27.65
47592;BME280;33317;33.356;-117.184;2024-01-11T02:47:52;99076.54;;;23.14;27.92
47592;BME280;33317;33.356;-117.184;2024-01-11T02:50:21;99080.64;;;23.14;27.91
47592;BME280;33317;33.356;-117.184;2024-01-11T02:52:50;99086.65;;;23.06;28.02
47592;BME280;33317;33.356;-117.184;2024-01-11T02:55:21;99086.06;;;23.12;27.93
47592;BME280;33317;33.356;-117.184;2024-01-11T02:57:50;99085.64;;;22.72;28.29
47592;BME280;33317;33.356;-117.184;2024-01-11T03:00:18;99089.42;;;23.03;28.39
47592;BME280;33317;33.356;-117.184;2024-01-11T03:02:46;99086.64;;;22.99;28.85
47592;BME280;33317;33.356;-117.184;2024-01-11T03:05:15;99088.53;;;23.09;28.87
47592;BME280;33317;33.356;-117.184;2024-01-11T03:07:43;99091.41;;;23.27;28.88
47592;BME280;33317;33.356;-117.184;2024-01-11T03:10:13;99089.87;;;23.16;29.16
47592;BME280;33317;33.356;-117.184;2024-01-11T03:12:41;99091.01;;;23.27;29.01
47592;BME280;33317;33.356;-117.184;2024-01-11T03:15:10;99093.81;;;23.16;29.21
47592;BME280;33317;33.356;-117.184;2024-01-11T03:17:39;99098.37;;;23.22;29.07
47592;BME280;33317;33.356;-117.184;2024-01-11T03:20:08;99098.08;;;23.21;29.13
47592;BME280;33317;33.356;-117.184;2024-01-11T03:22:37;99095.33;;;23.40;29.21
47592;BME280;33317;33.356;-117.184;2024-01-11T03:25:13;99089.10;;;22.87;29.50
47592;BME280;33317;33.356;-117.184;2024-01-11T03:27:41;99084.44;;;22.85;29.73
47592;BME280;33317;33.356;-117.184;2024-01-11T03:30:10;99086.89;;;23.30;29.55
47592;BME280;33317;33.356;-117.184;2024-01-11T03:32:38;99088.52;;;22.69;29.99
47592;BME280;33317;33.356;-117.184;2024-01-11T03:35:09;99090.13;;;22.80;29.72
47592;BME280;33317;33.356;-117.184;2024-01-11T03:37:38;99094.46;;;22.87;30.04
47592;BME280;33317;33.356;-117.184;2024-01-11T03:40:07;99100.88;;;23.22;29.90
47592;BME280;33317;33.356;-117.184;2024-01-11T03:42:35;99106.08;;;22.70;29.99
47592;BME280;33317;33.356;-117.184;2024-01-11T03:45:05;99114.56;;;22.65;30.00
47592;BME280;33317;33.356;-117.184;2024-01-11T03:47:33;99112.47;;;22.88;30.08
47592;BME280;33317;33.356;-117.184;2024-01-11T03:50:05;99112.53;;;22.68;30.32
47592;BME280;33317;33.356;-117.184;2024-01-11T03:52:33;99110.85;;;22.73;30.48
47592;BME280;33317;33.356;-117.184;2024-01-11T03:55:03;99115.14;;;22.80;30.23
47592;BME280;33317;33.356;-117.184;2024-01-11T03:57:31;99112.30;;;23.01;29.81
47592;BME280;33317;33.356;-117.184;2024-01-11T03:59:59;99111.31;;;22.63;30.40
47592;BME280;33317;33.356;-117.184;2024-01-11T04:02:29;99114.26;;;22.60;30.01
47592;BME280;33317;33.356;-117.184;2024-01-11T04:04:57;99117.06;;;22.07;31.08
47592;BME280;33317;33.356;-117.184;2024-01-11T04:07:27;99120.38;;;22.46;31.03
47592;BME280;33317;33.356;-117.184;2024-01-11T04:09:55;99122.68;;;22.56;30.83
47592;BME280;33317;33.356;-117.184;2024-01-11T04:12:23;99127.33;;;22.54;30.46
47592;BME280;33317;33.356;-117.184;2024-01-11T04:14:52;99130.74;;;22.00;31.05
47592;BME280;33317;33.356;-117.184;2024-01-11T04:17:20;99134.23;;;22.83;30.57
47592;BME280;33317;33.356;-117.184;2024-01-11T04:19:49;99134.86;;;22.31;30.60
47592;BME280;33317;33.356;-117.184;2024-01-11T04:22:18;99136.18;;;22.70;30.52
47592;BME280;33317;33.356;-117.184;2024-01-11T04:24:46;99134.40;;;22.61;30.36
47592;BME280;33317;33.356;-117.184;2024-01-11T04:27:15;99135.67;;;22.88;30.26
47592;BME280;33317;33.356;-117.184;2024-01-11T04:29:44;99138.53;;;22.78;30.05
47592;BME280;33317;33.356;-117.184;2024-01-11T04:32:12;99136.63;;;23.08;30.02
47592;BME280;33317;33.356;-117.184;2024-01-11T04:34:42;99128.47;;;22.89;29.99
47592;BME280;33317;33.356;-117.184;2024-01-11T04:37:12;99124.78;;;22.80;30.17
47592;BME280;33317;33.356;-117.184;2024-01-11T04:39:40;99117.51;;;23.18;29.87
47592;BME280;33317;33.356;-117.184;2024-01-11T04:42:09;99111.97;;;23.03;30.10
47592;BME280;33317;33.356;-117.184;2024-01-11T04:44:37;99113.86;;;22.97;29.85
47592;BME280;33317;33.356;-117.184;2024-01-11T04:47:06;99120.44;;;22.59;30.58
47592;BME280;33317;33.356;-117.184;2024-01-11T04:49:35;99118.03;;;23.29;30.05
47592;BME280;33317;33.356;-117.184;2024-01-11T04:52:04;99112.60;;;22.68;30.39
47592;BME280;33317;33.356;-117.184;2024-01-11T04:54:32;99116.75;;;22.81;30.53
47592;BME280;33317;33.356;-117.184;2024-01-11T04:57:00;99118.02;;;22.46;30.50
47592;BME280;33317;33.356;-117.184;2024-01-11T04:59:29;99119.78;;;22.72;30.45
47592;BME280;33317;33.356;-117.184;2024-01-11T05:01:57;99122.38;;;22.71;30.50
47592;BME280;33317;33.356;-117.184;2024-01-11T05:04:26;99124.44;;;22.53;30.63
47592;BME280;33317;33.356;-117.184;2024-01-11T05:06:54;99123.37;;;22.57;31.02
47592;BME280;33317;33.356;-117.184;2024-01-11T05:09:22;99122.69;;;22.45;30.86
47592;BME280;33317;33.356;-117.184;2024-01-11T05:11:51;99123.26;;;22.50;31.14
47592;BME280;33317;33.356;-117.184;2024-01-11T05:14:20;99130.23;;;22.59;30.92
47592;BME280;33317;33.356;-117.184;2024-01-11T05:16:48;99132.49;;;22.17;30.85
47592;BME280;33317;33.356;-117.184;2024-01-11T05:19:24;99132.92;;;22.69;30.78
47592;BME280;33317;33.356;-117.184;2024-01-11T05:21:52;99127.34;;;22.79;30.73
47592;BME280;33317;33.356;-117.184;2024-01-11T05:24:21;99121.47;;;22.73;30.73
47592;BME280;33317;33.356;-117.184;2024-01-11T05:26:49;99121.60;;;22.53;30.87
47592;BME280;33317;33.356;-117.184;2024-01-11T05:29:18;99121.11;;;22.39;30.60
47592;BME280;33317;33.356;-117.184;2024-01-11T05:31:46;99123.91;;;22.76;30.56
47592;BME280;33317;33.356;-117.184;2024-01-11T05:34:14;99122.71;;;22.78;30.49
47592;BME280;33317;33.356;-117.184;2024-01-11T05:36:44;99123.80;;;22.83;30.47
47592;BME280;33317;33.356;-117.184;2024-01-11T05:39:12;99119.05;;;23.11;30.40
47592;BME280;33317;33.356;-117.184;2024-01-11T05:41:43;99116.28;;;22.76;30.19
47592;BME280;33317;33.356;-117.184;2024-01-11T05:44:12;99121.04;;;22.71;30.23
47592;BME280;33317;33.356;-117.184;2024-01-11T05:46:40;99119.08;;;22.49;30.50
47592;BME280;33317;33.356;-117.184;2024-01-11T05:49:08;99114.88;;;22.88;30.32
47592;BME280;33317;33.356;-117.184;2024-01-11T05:51:37;99114.00;;;22.80;30.45
47592;BME280;33317;33.356;-117.184;2024-01-11T05:54:05;99110.79;;;22.89;30.25
47592;BME280;33317;33.356;-117.184;2024-01-11T05:56:34;99109.90;;;22.86;30.31
47592;BME280;33317;33.356;-117.184;2024-01-11T05:59:02;99110.42;;;22.75;30.45
47592;BME280;33317;33.356;-117.184;2024-01-11T06:01:30;99106.61;;;22.68;30.53
47592;BME280;33317;33.356;-117.184;2024-01-11T06:03:59;99108.06;;;22.76;30.43
47592;BME280;33317;33.356;-117.184;2024-01-11T06:06:28;99102.66;;;23.07;30.30
47592;BME280;33317;33.356;-117.184;2024-01-11T06:08:56;99103.62;;;22.81;30.32
47592;BME280;33317;33.356;-117.184;2024-01-11T06:11:24;99104.08;;;22.92;30.37
47592;BME280;33317;33.356;-117.184;2024-01-11T06:13:52;99103.12;;;22.67;30.39
47592;BME280;33317;33.356;-117.184;2024-01-11T06:16:21;99102.09;;;22.78;30.47
47592;BME280;33317;33.356;-117.184;2024-01-11T06:18:51;99103.81;;;22.42;30.31
47592;BME280;33317;33.356;-117.184;2024-01-11T06:21:19;99107.10;;;22.92;30.29
47592;BME280;33317;33.356;-117.184;2024-01-11T06:23:48;99107.20;;;22.84;30.33
47592;BME280;33317;33.356;-117.184;2024-01-11T06:26:15;99107.28;;;22.97;29.93
47592;BME280;33317;33.356;-117.184;2024-01-11T06:28:44;99103.42;;;22.95;29.92
47592;BME280;33317;33.356;-117.184;2024-01-11T06:31:12;99105.44;;;23.19;29.87
47592;BME280;33317;33.356;-117.184;2024-01-11T06:33:40;99103.86;;;22.92;29.94
47592;BME280;33317;33.356;-117.184;2024-01-11T06:36:09;99101.41;;;23.16;29.85
47592;BME280;33317;33.356;-117.184;2024-01-11T06:38:37;99104.23;;;22.47;30.15
47592;BME280;33317;33.356;-117.184;2024-01-11T06:41:06;99097.04;;;23.09;29.74
47592;BME280;33317;33.356;-117.184;2024-01-11T06:43:34;99094.01;;;22.68;29.85
47592;BME280;33317;33.356;-117.184;2024-01-11T06:46:04;99098.07;;;22.80;29.74
47592;BME280;33317;33.356;-117.184;2024-01-11T06:48:33;99102.56;;;23.11;29.66
47592;BME280;33317;33.356;-117.184;2024-01-11T06:51:01;99099.97;;;22.72;29.78
47592;BME280;33317;33.356;-117.184;2024-01-11T06:53:30;99103.27;;;23.33;29.65
47592;BME280;33317;33.356;-117.184;2024-01-11T06:55:58;99104.10;;;23.07;29.94
47592;BME280;33317;33.356;-117.184;2024-01-11T06:58:26;99097.35;;;22.71;29.80
47592;BME280;33317;33.356;-117.184;2024-01-11T07:00:54;99101.10;;;22.83;29.93
47592;BME280;33317;33.356;-117.184;2024-01-11T07:03:23;99095.36;;;22.59;29.92
47592;BME280;33317;33.356;-117.184;2024-01-11T07:05:51;99092.82;;;22.83;29.94
47592;BME280;33317;33.356;-117.184;2024-01-11T07:08:20;99090.89;;;22.36;30.15
47592;BME280;33317;33.356;-117.184;2024-01-11T07:10:48;99087.58;;;22.75;30.02
47592;BME280;33317;33.356;-117.184;2024-01-11T07:13:17;99089.58;;;22.71;30.00
47592;BME280;33317;33.356;-117.184;2024-01-11T07:15:45;99085.17;;;22.74;30.00
47592;BME280;33317;33.356;-117.184;2024-01-11T07:18:13;99078.84;;;23.10;29.84
47592;BME280;33317;33.356;-117.184;2024-01-11T07:20:42;99076.09;;;22.55;29.87
47592;BME280;33317;33.356;-117.184;2024-01-11T07:23:10;99078.06;;;23.02;29.83
47592;BME280;33317;33.356;-117.184;2024-01-11T07:25:38;99075.36;;;22.98;29.90
47592;BME280;33317;33.356;-117.184;2024-01-11T07:28:07;99079.57;;;23.06;29.80
47592;BME280;33317;33.356;-117.184;2024-01-11T07:30:36;99083.90;;;22.84;30.00
47592;BME280;33317;33.356;-117.184;2024-01-11T07:33:04;99079.84;;;22.54;30.10
47592;BME280;33317;33.356;-117.184;2024-01-11T07:35:32;99079.13;;;22.96;29.92
47592;BME280;33317;33.356;-117.184;2024-01-11T07:38:01;99082.71;;;22.65;30.01
47592;BME280;33317;33.356;-117.184;2024-01-11T07:40:29;99080.65;;;23.11;29.75
47592;BME280;33317;33.356;-117.184;2024-01-11T07:42:58;99077.94;;;22.85;29.82
47592;BME280;33317;33.356;-117.184;2024-01-11T07:45:26;99072.77;;;22.74;29.90
47592;BME280;33317;33.356;-117.184;2024-01-11T07:47:54;99072.64;;;22.83;29.78
47592;BME280;33317;33.356;-117.184;2024-01-11T07:50:23;99071.32;;;22.69;29.65
47592;BME280;33317;33.356;-117.184;2024-01-11T07:52:51;99075.88;;;22.88;29.71
47592;BME280;33317;33.356;-117.184;2024-01-11T07:55:20;99083.59;;;22.75;29.89
47592;BME280;33317;33.356;-117.184;2024-01-11T07:57:48;99083.72;;;22.81;29.76
47592;BME280;33317;33.356;-117.184;2024-01-11T08:00:17;99083.80;;;22.45;29.89
47592;BME280;33317;33.356;-117.184;2024-01-11T08:02:45;99080.13;;;22.88;29.71
47592;BME280;33317;33.356;-117.184;2024-01-11T08:05:13;99077.55;;;23.07;29.69
47592;BME280;33317;33.356;-117.184;2024-01-11T08:07:42;99067.52;;;22.65;29.94
47592;BME280;33317;33.356;-117.184;2024-01-11T08:10:10;99072.21;;;22.30;29.88
47592;BME280;33317;33.356;-117.184;2024-01-11T08:12:39;99070.19;;;22.80;29.92
47592;BME280;33317;33.356;-117.184;2024-01-11T08:15:07;99072.15;;;22.45;29.77
47592;BME280;33317;33.356;-117.184;2024-01-11T08:17:35;99068.21;;;22.41;29.78
47592;BME280;33317;33.356;-117.184;2024-01-11T08:20:05;99061.42;;;22.88;29.78
47592;BME280;33317;33.356;-117.184;2024-01-11T08:22:33;99061.22;;;22.64;29.81
47592;BME280;33317;33.356;-117.184;2024-01-11T08:25:02;99057.99;;;22.65;29.74
47592;BME280;33317;33.356;-117.184;2024-01-11T08:27:30;99053.86;;;22.65;29.74
47592;BME280;33317;33.356;-117.184;2024-01-11T08:29:58;99058.98;;;22.57;29.88
47592;BME280;33317;33.356;-117.184;2024-01-11T08:32:27;99065.59;;;22.61;30.00
47592;BME280;33317;33.356;-117.184;2024-01-11T08:34:57;99069.53;;;22.61;30.03
47592;BME280;33317;33.356;-117.184;2024-01-11T08:37:25;99069.67;;;22.16;30.26
47592;BME280;33317;33.356;-117.184;2024-01-11T08:39:54;99069.68;;;22.46;30.18
47592;BME280;33317;33.356;-117.184;2024-01-11T08:42:22;99071.33;;;22.02;30.40
47592;BME280;33317;33.356;-117.184;2024-01-11T08:44:51;99065.40;;;22.05;30.57
47592;BME280;33317;33.356;-117.184;2024-01-11T08:47:19;99052.79;;;22.18;30.45
47592;BME280;33317;33.356;-117.184;2024-01-11T08:49:48;99044.69;;;21.92;30.69
47592;BME280;33317;33.356;-117.184;2024-01-11T08:52:16;99048.70;;;21.84;30.55
47592;BME280;33317;33.356;-117.184;2024-01-11T08:54:44;99046.41;;;22.04;30.56
47592;BME280;33317;33.356;-117.184;2024-01-11T08:57:13;99054.85;;;22.12;30.49
47592;BME280;33317;33.356;-117.184;2024-01-11T08:59:41;99053.88;;;21.79;30.81
47592;BME280;33317;33.356;-117.184;2024-01-11T09:02:10;99048.44;;;22.05;30.55
47592;BME280;33317;33.356;-117.184;2024-01-11T09:04:38;99045.42;;;21.93;30.63
47592;BME280;33317;33.356;-117.184;2024-01-11T09:07:07;99052.99;;;22.19;30.32
47592;BME280;33317;33.356;-117.184;2024-01-11T09:09:35;99048.70;;;21.77;30.77
47592;BME280;33317;33.356;-117.184;2024-01-11T09:12:04;99043.76;;;21.91;30.58
47592;BME280;33317;33.356;-117.184;2024-01-11T09:14:33;99039.21;;;21.93;30.56
47592;BME280;33317;33.356;-117.184;2024-01-11T09:17:01;99039.47;;;21.78;30.66
47592;BME280;33317;33.356;-117.184;2024-01-11T09:19:29;99040.19;;;21.81;30.60
47592;BME280;33317;33.356;-117.184;2024-01-11T09:21:58;99049.73;;;21.84;30.61
47592;BME280;33317;33.356;-117.184;2024-01-11T09:24:26;99053.04;;;21.89;30.53
47592;BME280;33317;33.356;-117.184;2024-01-11T09:26:55;99051.29;;;21.58;30.62
47592;BME280;33317;33.356;-117.184;2024-01-11T09:29:23;99054.77;;;21.59;30.83
47592;BME280;33317;33.356;-117.184;2024-01-11T09:31:52;99052.83;;;21.69;30.67
47592;BME280;33317;33.356;-117.184;2024-01-11T09:34:20;99051.09;;;21.90;30.49
47592;BME280;33317;33.356;-117.184;2024-01-11T09:36:48;99058.70;;;21.95;30.42
47592;BME280;33317;33.356;-117.184;2024-01-11T09:39:17;99057.77;;;21.77;30.61
47592;BME280;33317;33.356;-117.184;2024-01-11T09:41:50;99048.28;;;22.10;30.21
47592;BME280;33317;33.356;-117.184;2024-01-11T09:44:19;99054.56;;;21.83;30.43
47592;BME280;33317;33.356;-117.184;2024-01-11T09:46:48;99049.65;;;21.88;30.41
47592;BME280;33317;33.356;-117.184;2024-01-11T09:49:18;99049.86;;;21.85;30.46
47592;BME280;33317;33.356;-117.184;2024-01-11T09:51:48;99047.98;;;21.89;30.43
47592;BME280;33317;33.356;-117.184;2024-01-11T09:54:19;99030.17;;;21.78;30.78
47592;BME280;33317;33.356;-117.184;2024-01-11T09:56:47;99033.65;;;21.69;30.59
47592;BME280;33317;33.356;-117.184;2024-01-11T09:59:17;99036.89;;;21.58;30.71
47592;BME280;33317;33.356;-117.184;2024-01-11T10:01:46;99045.58;;;21.70;30.59
47592;BME280;33317;33.356;-117.184;2024-01-11T10:04:16;99042.15;;;21.80;30.44
47592;BME280;33317;33.356;-117.184;2024-01-11T10:06:44;99040.06;;;21.81;30.43
47592;BME280;33317;33.356;-117.184;2024-01-11T10:09:13;99035.32;;;21.51;30.48
47592;BME280;33317;33.356;-117.184;2024-01-11T10:11:41;99022.92;;;21.79;30.43
47592;BME280;33317;33.356;-117.184;2024-01-11T10:14:13;99016.61;;;21.54;30.93
47592;BME280;33317;33.356;-117.184;2024-01-11T10:16:42;99019.50;;;21.72;30.46
47592;BME280;33317;33.356;-117.184;2024-01-11T10:19:10;99014.86;;;21.69;30.47
47592;BME280;33317;33.356;-117.184;2024-01-11T10:21:39;99007.49;;;21.65;30.50
47592;BME280;33317;33.356;-117.184;2024-01-11T10:24:07;99008.32;;;21.70;30.46
47592;BME280;33317;33.356;-117.184;2024-01-11T10:26:36;99011.51;;;21.80;30.36
47592;BME280;33317;33.356;-117.184;2024-01-11T10:29:04;99008.31;;;21.70;30.45
47592;BME280;33317;33.356;-117.184;2024-01-11T10:31:34;99002.65;;;21.76;30.33
47592;BME280;33317;33.356;-117.184;2024-01-11T10:34:03;99007.67;;;21.60;30.52
47592;BME280;33317;33.356;-117.184;2024-01-11T10:36:32;98994.65;;;21.74;30.37
47592;BME280;33317;33.356;-117.184;2024-01-11T10:39:03;99001.56;;;21.63;30.48
47592;BME280;33317;33.356;-117.184;2024-01-11T10:41:36;99013.06;;;21.60;30.56
47592;BME280;33317;33.356;-117.184;2024-01-11T10:44:12;99015.61;;;21.52;30.59
47592;BME280;33317;33.356;-117.184;2024-01-11T10:46:46;99015.20;;;21.60;30.58
47592;BME280;33317;33.356;-117.184;2024-01-11T10:49:17;99013.98;;;21.74;30.35
47592;BME280;33317;33.356;-117.184;2024-01-11T10:51:53;99017.05;;;21.58;30.63
47592;BME280;33317;33.356;-117.184;2024-01-11T10:54:22;99019.42;;;21.84;30.37
47592;BME280;33317;33.356;-117.184;2024-01-11T10:56:51;99020.47;;;21.92;30.19
47592;BME280;33317;33.356;-117.184;2024-01-11T10:59:20;99021.13;;;21.95;30.20
47592;BME280;33317;33.356;-117.184;2024-01-11T11:01:50;99018.86;;;21.74;30.31
47592;BME280;33317;33.356;-117.184;2024-01-11T11:04:20;99010.93;;;21.91;30.24
47592;BME280;33317;33.356;-117.184;2024-01-11T11:06:50;99004.83;;;21.98;30.21
47592;BME280;33317;33.356;-117.184;2024-01-11T11:09:19;99011.32;;;21.94;30.26
47592;BME280;33317;33.356;-117.184;2024-01-11T11:11:47;99004.70;;;21.93;30.19
47592;BME280;33317;33.356;-117.184;2024-01-11T11:14:16;99000.74;;;22.02;30.10
47592;BME280;33317;33.356;-117.184;2024-01-11T11:16:45;98999.49;;;21.62;30.60
47592;BME280;33317;33.356;-117.184;2024-01-11T11:19:14;98994.86;;;21.80;30.33
47592;BME280;33317;33.356;-117.184;2024-01-11T11:21:43;98998.73;;;21.64;30.47
47592;BME280;33317;33.356;-117.184;2024-01-11T11:24:12;99000.71;;;21.60;30.47
47592;BME280;33317;33.356;-117.184;2024-01-11T11:26:41;98988.76;;;21.66;30.57
47592;BME280;33317;33.356;-117.184;2024-01-11T11:29:09;98970.68;;;21.99;30.41
47592;BME280;33317;33.356;-117.184;2024-01-11T11:31:42;98959.92;;;21.60;30.58
47592;BME280;33317;33.356;-117.184;2024-01-11T11:34:12;98960.97;;;21.70;30.67
47592;BME280;33317;33.356;-117.184;2024-01-11T11:36:41;98963.00;;;21.34;31.05
47592;BME280;33317;33.356;-117.184;2024-01-11T11:39:11;98963.40;;;21.54;30.67
47592;BME280;33317;33.356;-117.184;2024-01-11T11:41:39;98976.19;;;21.50;30.67
47592;BME280;33317;33.356;-117.184;2024-01-11T11:44:08;98968.18;;;21.39;30.79
47592;BME280;33317;33.356;-117.184;2024-01-11T11:46:40;98954.81;;;21.50;31.08
47592;BME280;33317;33.356;-117.184;2024-01-11T11:49:08;98952.49;;;21.86;30.87
47592;BME280;33317;33.356;-117.184;2024-01-11T11:51:39;98962.62;;;21.45;30.71
47592;BME280;33317;33.356;-117.184;2024-01-11T11:54:09;98960.56;;;21.71;30.75
47592;BME280;33317;33.356;-117.184;2024-01-11T11:56:38;98954.44;;;21.59;30.66
47592;BME280;33317;33.356;-117.184;2024-01-11T11:59:07;98951.76;;;21.29;30.88
47592;BME280;33317;33.356;-117.184;2024-01-11T12:01:36;98934.75;;;21.58;30.81
47592;BME280;33317;33.356;-117.184;2024-01-11T12:04:05;98947.36;;;21.20;31.02
47592;BME280;33317;33.356;-117.184;2024-01-11T12:06:36;98937.56;;;21.17;31.03
47592;BME280;33317;33.356;-117.184;2024-01-11T12:09:04;98922.94;;;21.37;30.84
47592;BME280;33317;33.356;-117.184;2024-01-11T12:11:33;98887.83;;;21.48;30.75
47592;BME280;33317;33.356;-117.184;2024-01-11T12:14:01;98900.42;;;21.92;30.42
47592;BME280;33317;33.356;-117.184;2024-01-11T12:16:29;98893.46;;;21.53;30.57
47592;BME280;33317;33.356;-117.184;2024-01-11T12:18:58;98887.73;;;21.67;30.35
47592;BME280;33317;33.356;-117.184;2024-01-11T12:21:26;98886.97;;;21.66;30.49
47592;BME280;33317;33.356;-117.184;2024-01-11T12:23:55;98902.92;;;21.89;30.09
47592;BME280;33317;33.356;-117.184;2024-01-11T12:26:24;98911.11;;;21.83;30.23
47592;BME280;33317;33.356;-117.184;2024-01-11T12:28:52;98936.85;;;21.74;30.22
47592;BME280;33317;33.356;-117.184;2024-01-11T12:31:22;98937.84;;;21.64;30.41
47592;BME280;33317;33.356;-117.184;2024-01-11T12:33:51;98938.85;;;21.61;30.46
47592;BME280;33317;33.356;-117.184;2024-01-11T12:36:20;98939.08;;;21.60;30.46
47592;BME280;33317;33.356;-117.184;2024-01-11T12:38:48;98950.29;;;21.30;30.74